Time;durP1;ratioP1;P1;durP2;ratioP2;P2;SDS_P1;SDS_P2;PMS_P1;PMS_P2;Temp;Humidity;BMP_temperature;BMP_pressure;BME280_temperature;BME280_humidity;BME280_pressure;Samples;Min_cycle;Max_cycle;Signal;HPM_P1;HPM_P2
2023/03/13 00:01:38;;;;;;;;;;;10.50;87.10;;;9.72;69.09;99416.09;5041810;28;19967;-81
2023/03/13 00:04:05;;;;;;;;;;;10.60;87.10;;;9.73;69.13;99409.72;5042462;28;19929;-81
2023/03/13 00:06:35;;;;;;;;;;;10.60;87.10;;;9.73;69.21;99402.53;5046688;28;19940;-81
2023/03/13 00:09:04;;;;;;;;;;;10.60;87.10;;;9.75;69.66;99403.09;5050006;28;20377;-81
2023/03/13 00:11:31;;;;;;;;;;;10.60;87.50;;;9.75;69.96;99392.44;5040835;28;19960;-81
2023/03/13 00:13:59;;;;;;;;;;;10.60;87.70;;;9.76;70.37;99395.91;5047886;28;19929;-81
2023/03/13 00:16:27;;;;;;;;;;;10.60;87.90;;;9.77;70.48;99387.72;5047162;28;19948;-81
2023/03/13 00:18:56;;;;;;;;;;;10.60;88.10;;;9.79;70.67;99382.16;5045228;28;19924;-82
2023/03/13 00:21:24;;;;;;;;;;;10.60;88.30;;;9.79;71.68;99377.63;5047890;28;19936;-81
2023/03/13 00:23:52;;;;;;;;;;;10.60;89.10;;;9.80;72.27;99379.25;5043409;28;19928;-81
2023/03/13 00:26:21;;;;;;;;;;;10.60;89.50;;;9.83;72.18;99369.19;5054724;28;20289;-81
2023/03/13 00:28:49;;;;;;;;;;;10.70;89.60;;;9.87;72.50;99357.03;5052429;28;20385;-81
2023/03/13 00:31:18;;;;;;;;;;;10.70;89.80;;;9.84;73.16;99360.16;5049501;28;20405;-81
2023/03/13 00:33:46;;;;;;;;;;;10.70;90.20;;;9.84;73.42;99352.97;5054590;28;19928;-81
2023/03/13 00:36:15;;;;;;;;;;;10.70;90.70;;;9.83;73.64;99354.03;5057220;28;19939;-81
2023/03/13 00:38:42;;;;;;;;;;;10.70;90.70;;;9.85;73.41;99345.78;5052767;28;19933;-81
2023/03/13 00:41:12;;;;;;;;;;;10.70;90.60;;;9.86;73.90;99339.41;5046547;28;19932;-81
2023/03/13 00:43:40;;;;;;;;;;;10.70;90.80;;;9.87;73.97;99325.06;5052715;28;19924;-81
2023/03/13 00:46:07;;;;;;;;;;;10.70;90.90;;;9.88;74.49;99321.38;5047523;28;20025;-81
2023/03/13 00:48:35;;;;;;;;;;;10.70;91.40;;;9.88;74.21;99330.16;5041870;28;19979;-81
2023/03/13 00:51:02;;;;;;;;;;;10.70;91.00;;;9.89;74.68;99326.44;5037567;28;20579;-81
2023/03/13 00:53:30;;;;;;;;;;;10.70;91.50;;;9.90;74.55;99324.59;5055465;28;19929;-81
2023/03/13 00:55:58;;;;;;;;;;;10.70;91.20;;;9.92;74.90;99322.53;5049949;28;20392;-81
2023/03/13 00:58:28;;;;;;;;;;;10.80;91.70;;;9.93;74.94;99310.81;5047269;28;19925;-81
2023/03/13 01:00:55;;;;;;;;;;;10.70;91.70;;;9.92;75.48;99311.88;5042812;28;19940;-81
2023/03/13 01:03:24;;;;;;;;;;;10.70;92.50;;;9.90;75.95;99298.75;5057477;28;20385;-81
2023/03/13 01:05:59;;;;;;;;;;;10.70;92.40;;;9.91;75.42;99289.75;5046025;28;19962;-81
2023/03/13 01:08:27;;;;;;;;;;;10.70;92.00;;;9.93;76.04;99281.53;5046956;28;19929;-81
2023/03/13 01:10:58;;;;;;;;;;;10.70;92.60;;;9.91;76.96;99267.66;5032918;28;19937;-81
2023/03/13 01:13:27;;;;;;;;;;;10.70;93.50;;;9.89;77.52;99259.06;5050943;28;20495;-81
2023/03/13 01:15:54;;;;;;;;;;;10.70;93.40;;;9.90;77.50;99261.47;5052904;28;19939;-81
2023/03/13 01:18:21;;;;;;;;;;;10.70;93.40;;;9.88;78.07;99255.59;5056652;28;20015;-81
2023/03/13 01:20:48;;;;;;;;;;;10.70;93.90;;;9.86;78.49;99256.84;5044072;28;19928;-81
2023/03/13 01:23:15;;;;;;;;;;;10.70;93.60;;;9.89;77.72;99254.53;5044496;28;19943;-81
2023/03/13 01:25:42;;;;;;;;;;;10.70;93.50;;;9.89;78.81;99253.75;5052145;28;19982;-81
2023/03/13 01:28:09;;;;;;;;;;;10.70;94.30;;;9.89;79.50;99251.06;5047268;28;19929;-81
2023/03/13 01:30:37;;;;;;;;;;;10.70;95.20;;;9.87;80.55;99242.53;5046459;28;19936;-82
2023/03/13 01:33:04;;;;;;;;;;;10.70;95.80;;;9.87;80.04;99245.19;5055721;28;20012;-81
2023/03/13 01:35:31;;;;;;;;;;;10.70;95.40;;;9.87;80.73;99229.22;5047261;28;19967;-81
2023/03/13 01:37:59;;;;;;;;;;;10.70;95.90;;;9.86;80.01;99222.25;5054162;28;20360;-81
2023/03/13 01:40:26;;;;;;;;;;;10.70;94.80;;;9.88;79.45;99207.66;5043015;28;19951;-81
2023/03/13 01:42:54;;;;;;;;;;;10.70;95.00;;;9.90;79.43;99208.22;5049324;28;19929;-81
2023/03/13 01:46:04;;;;;;;;;;;10.70;94.70;;;9.90;80.19;99202.91;5049778;28;20018;-81
2023/03/13 01:48:57;;;;;;;;;;;10.70;95.20;;;9.88;80.25;99191.69;5031587;28;19935;-82
2023/03/13 01:51:27;;;;;;;;;;;10.70;95.30;;;9.90;80.34;99196.75;5045243;28;19982;-81
2023/03/13 01:54:00;;;;;;;;;;;10.70;95.40;;;9.89;81.62;99195.97;5053651;28;19925;-81
2023/03/13 01:56:34;;;;;;;;;;;10.70;96.40;;;9.89;82.30;99179.16;5056680;28;20027;-81
2023/03/13 01:59:02;;;;;;;;;;;10.70;97.00;;;9.87;82.12;99176.75;5046633;28;19960;-81
2023/03/13 02:01:30;;;;;;;;;;;10.70;96.30;;;9.89;81.92;99173.84;5039622;28;19960;-81
2023/03/13 02:03:58;;;;;;;;;;;10.70;96.50;;;9.89;82.82;99157.88;5047399;28;20015;-81
2023/03/13 02:06:30;;;;;;;;;;;10.70;97.70;;;9.86;83.22;99150.34;5047816;28;20453;-81
2023/03/13 02:08:59;;;;;;;;;;;10.70;97.20;;;9.84;83.94;99147.94;5044883;28;19932;-82
2023/03/13 02:11:32;;;;;;;;;;;10.70;98.10;;;9.86;84.13;99145.84;5043954;28;19928;-81
2023/03/13 02:13:59;;;;;;;;;;;10.70;98.50;;;9.83;84.84;99130.34;5043262;28;19977;-81
2023/03/13 02:16:26;;;;;;;;;;;10.60;98.50;;;9.79;85.57;99134.53;5045590;28;20012;-81
2023/03/13 02:18:53;;;;;;;;;;;10.60;99.10;;;9.77;86.14;99123.31;5046798;28;19939;-82
2023/03/13 02:21:32;;;;;;;;;;;10.60;99.70;;;9.76;86.16;99121.69;5046068;28;20015;-82
2023/03/13 02:24:03;;;;;;;;;;;10.60;99.10;;;9.77;85.56;99113.47;5043466;28;20524;-82
2023/03/13 02:26:31;;;;;;;;;;;10.60;98.70;;;9.79;85.81;99108.72;5043509;28;19928;-82
2023/03/13 02:28:58;;;;;;;;;;;10.60;99.10;;;9.78;86.12;99087.66;5043905;28;19933;-82
2023/03/13 02:31:26;;;;;;;;;;;10.60;99.30;;;9.79;86.27;99089.25;5050053;28;19925;-82
2023/03/13 02:33:54;;;;;;;;;;;10.60;99.40;;;9.79;86.03;99082.09;5046485;28;20526;-81
2023/03/13 02:36:22;;;;;;;;;;;10.60;99.20;;;9.78;86.87;99080.47;5049788;28;20381;-82
2023/03/13 02:38:53;;;;;;;;;;;10.60;99.60;;;9.78;86.53;99077.81;5041223;28;20365;-82
2023/03/13 02:41:21;;;;;;;;;;;10.60;99.70;;;9.78;87.53;99083.13;5047082;28;19925;-82
2023/03/13 02:43:49;;;;;;;;;;;10.60;99.90;;;9.77;87.38;99073.53;5039590;28;20008;-82
2023/03/13 02:46:20;;;;;;;;;;;10.60;99.90;;;9.79;87.17;99070.63;5047630;28;20308;-82
2023/03/13 02:48:50;;;;;;;;;;;10.60;99.90;;;9.78;87.40;99050.38;5053976;28;20013;-82
2023/03/13 02:51:22;;;;;;;;;;;10.60;99.90;;;9.76;88.29;99050.63;5069193;28;19937;-82
2023/03/13 02:53:50;;;;;;;;;;;10.60;99.90;;;9.76;88.75;99045.31;5049772;28;19929;-82
2023/03/13 02:56:20;;;;;;;;;;;10.60;99.90;;;9.78;88.66;99047.72;5049679;28;19924;-82
2023/03/13 02:58:49;;;;;;;;;;;10.60;99.90;;;9.79;88.71;99036.81;5050634;28;20278;-82
2023/03/13 03:01:16;;;;;;;;;;;10.60;99.90;;;9.79;88.67;99036.81;5049968;28;19975;-82
2023/03/13 03:03:43;;;;;;;;;;;10.60;99.90;;;9.79;89.15;99042.16;5050064;28;19929;-82
2023/03/13 03:06:10;;;;;;;;;;;10.60;99.90;;;9.80;88.92;99038.44;5050566;28;19960;-82
2023/03/13 03:08:40;;;;;;;;;;;10.60;99.90;;;9.83;88.63;99025.69;5050121;28;20401;-82
2023/03/13 03:11:07;;;;;;;;;;;10.70;99.90;;;9.84;88.85;99028.09;5046547;28;20027;-81
2023/03/13 03:13:35;;;;;;;;;;;10.80;99.90;;;9.88;88.28;99012.47;5050483;28;20006;-82
2023/03/13 03:16:07;;;;;;;;;;;10.70;99.90;;;9.90;87.70;99003.16;5052304;28;19935;-82
2023/03/13 03:18:35;;;;;;;;;;;10.70;99.90;;;9.91;88.34;98998.69;5056109;28;19971;-82
2023/03/13 03:21:05;;;;;;;;;;;10.70;99.90;;;9.90;88.67;99000.50;5047824;28;20238;-82
2023/03/13 03:23:36;;;;;;;;;;;10.70;99.90;;;9.89;89.85;98992.78;5045740;28;19933;-82
2023/03/13 03:26:05;;;;;;;;;;;10.70;99.90;;;9.89;90.04;98995.44;5047476;28;19935;-82
2023/03/13 03:28:32;;;;;;;;;;;10.70;99.90;;;9.92;90.22;98992.28;5049991;28;19933;-82
2023/03/13 03:31:04;;;;;;;;;;;10.70;99.90;;;9.93;90.22;98996.56;5048232;28;20057;-82
2023/03/13 03:33:33;;;;;;;;;;;10.70;99.90;;;9.95;90.13;98994.44;5049544;28;19932;-82
2023/03/13 03:36:01;;;;;;;;;;;10.80;99.90;;;9.96;90.38;98982.78;5044783;28;19928;-82
2023/03/13 03:38:29;;;;;;;;;;;10.80;99.90;;;9.97;89.80;98979.84;5055468;28;20399;-82
2023/03/13 03:40:57;;;;;;;;;;;10.80;99.90;;;9.99;90.39;98979.59;5048267;28;19928;-82
2023/03/13 03:43:24;;;;;;;;;;;10.80;99.90;;;9.98;90.48;98975.34;5047534;28;19986;-82
2023/03/13 03:45:51;;;;;;;;;;;10.80;99.90;;;10.00;90.85;98981.22;5065366;28;19932;-82
2023/03/13 03:48:18;;;;;;;;;;;10.80;99.90;;;9.99;91.04;98977.75;5048662;28;20023;-82
2023/03/13 03:50:47;;;;;;;;;;;10.80;99.90;;;9.99;91.15;98972.41;5048021;28;20458;-82
2023/03/13 03:53:15;;;;;;;;;;;10.80;99.90;;;10.01;91.11;98974.84;5048973;28;20402;-82
2023/03/13 03:55:42;;;;;;;;;;;10.90;99.90;;;10.03;91.17;98981.53;5046852;28;19929;-82
2023/03/13 03:58:09;;;;;;;;;;;10.90;99.90;;;10.03;91.49;98984.19;5070712;28;19933;-82
2023/03/13 04:00:58;;;;;;;;;;;10.90;99.90;;;10.07;91.05;98981.88;5053267;28;19990;-82
2023/03/13 04:03:25;;;;;;;;;;;10.90;99.90;;;10.06;91.08;98989.06;5049618;28;19956;-82
2023/03/13 04:05:54;;;;;;;;;;;10.90;99.90;;;10.06;91.48;98989.06;5047952;28;20234;-82
2023/03/13 04:08:23;;;;;;;;;;;10.90;99.90;;;10.08;91.84;98996.78;5047966;28;19932;-82
2023/03/13 04:10:50;;;;;;;;;;;10.90;99.90;;;10.09;92.09;98993.06;5046666;28;19929;-82
2023/03/13 04:13:21;;;;;;;;;;;10.90;99.90;;;10.09;92.32;98993.06;5049471;28;20031;-82
2023/03/13 04:15:48;;;;;;;;;;;10.90;99.90;;;10.11;92.85;98988.31;5047356;28;20348;-82
2023/03/13 04:18:16;;;;;;;;;;;10.90;99.90;;;10.11;92.77;98991.00;5050084;28;20018;-82
2023/03/13 04:20:43;;;;;;;;;;;10.90;99.90;;;10.11;92.60;98979.53;5046184;28;20616;-82
2023/03/13 04:23:12;;;;;;;;;;;11.00;99.90;;;10.12;92.93;98973.94;5059537;28;19961;-82
2023/03/13 04:25:39;;;;;;;;;;;11.00;99.90;;;10.12;92.94;98967.81;5045961;28;19928;-82
2023/03/13 04:28:10;;;;;;;;;;;11.00;99.90;;;10.12;93.12;98965.94;5048705;28;19983;-82
2023/03/13 04:30:42;;;;;;;;;;;11.00;99.90;;;10.13;92.83;98951.56;5050390;28;19998;-82
2023/03/13 04:33:23;;;;;;;;;;;11.00;99.90;;;10.17;92.66;98954.56;5049843;28;20359;-81
2023/03/13 04:36:03;;;;;;;;;;;11.00;99.90;;;10.18;93.15;98953.50;5050535;28;19929;-83
2023/03/13 04:39:07;;;;;;;;;;;11.00;99.90;;;10.19;93.65;98949.78;5006768;28;19925;-85
2023/03/13 04:41:53;;;;;;;;;;;11.10;99.90;;;10.22;93.92;98954.63;5044708;28;20066;-82
2023/03/13 04:44:52;;;;;;;;;;;11.00;99.90;;;10.23;93.92;98953.56;5036672;28;19925;-80
2023/03/13 04:47:38;;;;;;;;;;;11.10;99.90;;;10.26;93.61;98950.47;5046595;28;19974;-79
2023/03/13 04:50:25;;;;;;;;;;;11.10;99.90;;;10.29;93.22;98950.75;5041509;28;19958;-80
2023/03/13 04:53:06;;;;;;;;;;;11.10;99.90;;;10.31;92.81;98940.66;5045212;28;20400;-81
2023/03/13 04:55:52;;;;;;;;;;;11.20;99.90;;;10.34;92.60;98934.03;5044986;28;20005;-81
2023/03/13 04:58:51;;;;;;;;;;;11.20;99.90;;;10.36;92.28;98939.94;5029847;28;19928;-81
2023/03/13 05:01:39;;;;;;;;;;;11.20;99.90;;;10.38;92.80;98932.47;5025816;28;19951;-80
2023/03/13 05:04:09;;;;;;;;;;;11.20;99.90;;;10.39;92.94;98934.09;5042364;28;20321;-81
2023/03/13 05:06:56;;;;;;;;;;;11.20;99.90;;;10.40;93.12;98925.06;5046752;28;19978;-81
2023/03/13 05:09:32;;;;;;;;;;;11.30;99.90;;;10.43;93.08;98929.06;5043664;28;19933;-81
2023/03/13 05:12:00;;;;;;;;;;;11.30;99.90;;;10.43;93.06;98919.22;5051408;28;19928;-81
2023/03/13 05:14:51;;;;;;;;;;;11.30;99.90;;;10.44;93.46;98925.34;5028772;28;19929;-79
2023/03/13 05:17:32;;;;;;;;;;;11.30;99.90;;;10.46;93.91;98913.41;5047779;28;19951;-80
2023/03/13 05:20:18;;;;;;;;;;;11.30;99.90;;;10.49;93.47;98909.41;5048939;28;19932;-79
2023/03/13 05:22:51;;;;;;;;;;;11.30;99.90;;;10.51;93.93;98907.31;5045879;28;19940;-80
2023/03/13 05:25:18;;;;;;;;;;;11.40;99.90;;;10.54;93.75;98917.47;5049286;28;19948;-80
2023/03/13 05:28:04;;;;;;;;;;;11.40;99.90;;;10.55;93.50;98908.44;5040661;28;20404;-80
2023/03/13 05:30:57;;;;;;;;;;;11.40;99.90;;;10.58;93.77;98910.59;5039748;28;19925;-81
2023/03/13 05:33:38;;;;;;;;;;;11.40;99.90;;;10.60;94.13;98910.38;5047082;28;20635;-80
2023/03/13 05:36:13;;;;;;;;;;;11.50;99.90;;;10.64;95.00;98912.28;5046167;28;19924;-81
2023/03/13 05:38:46;;;;;;;;;;;11.50;99.90;;;10.67;95.88;98906.44;5048946;28;19932;-83
2023/03/13 05:41:31;;;;;;;;;;;11.50;99.90;;;10.71;96.13;98898.75;5048228;28;20019;-82
2023/03/13 05:44:18;;;;;;;;;;;11.50;99.90;;;10.72;95.89;98901.16;5044972;28;20022;-81
2023/03/13 05:46:50;;;;;;;;;;;11.60;99.90;;;10.76;96.30;98896.94;5044234;28;19929;-82
2023/03/13 05:49:43;;;;;;;;;;;11.60;99.90;;;10.82;97.23;98905.78;5038756;28;20011;-81
2023/03/13 05:52:28;;;;;;;;;;;11.70;99.90;;;10.86;96.89;98890.09;5042803;28;19925;-84
2023/03/13 05:55:10;;;;;;;;;;;11.70;99.90;;;10.89;97.34;98902.94;5044699;28;19986;-84
2023/03/13 05:57:45;;;;;;;;;;;11.80;99.90;;;10.93;97.11;98901.34;5043931;28;20028;-84
2023/03/13 06:00:20;;;;;;;;;;;11.80;99.90;;;10.99;97.30;98892.38;5053439;28;19925;-84
2023/03/13 06:03:08;;;;;;;;;;;11.80;99.90;;;10.99;96.84;98879.81;5042412;28;19928;-83
2023/03/13 06:05:40;;;;;;;;;;;11.90;99.90;;;11.03;97.22;98883.59;5044181;28;19935;-84
2023/03/13 06:08:17;;;;;;;;;;;11.90;99.90;;;11.06;96.83;98877.75;5045512;28;20031;-84
2023/03/13 06:10:44;;;;;;;;;;;11.90;99.90;;;11.08;96.42;98867.63;5048616;28;19925;-84
2023/03/13 06:13:11;;;;;;;;;;;11.90;99.90;;;11.10;96.02;98870.03;5048030;28;19935;-85
2023/03/13 06:15:39;;;;;;;;;;;12.00;99.90;;;11.13;95.93;98874.09;5048029;28;19964;-83
2023/03/13 06:18:13;;;;;;;;;;;12.00;99.90;;;11.15;95.77;98880.75;5047693;28;19924;-83
2023/03/13 06:20:40;;;;;;;;;;;12.10;99.90;;;11.19;95.87;98884.53;5052637;28;20411;-84
2023/03/13 06:23:07;;;;;;;;;;;12.00;99.90;;;11.22;95.43;98878.66;5047476;28;20423;-84
2023/03/13 06:25:34;;;;;;;;;;;12.10;99.90;;;11.24;95.42;98870.44;5049027;28;20566;-84
2023/03/13 06:28:01;;;;;;;;;;;12.10;99.90;;;11.25;94.90;98867.50;5043027;28;19936;-84
2023/03/13 06:30:28;;;;;;;;;;;12.20;99.90;;;11.27;94.80;98865.41;5053614;28;19979;-84
2023/03/13 06:32:57;;;;;;;;;;;12.20;99.90;;;11.29;94.46;98878.47;5046751;28;19928;-84
2023/03/13 06:35:25;;;;;;;;;;;12.20;99.90;;;11.29;94.33;98867.81;5051570;28;20432;-84
2023/03/13 06:37:51;;;;;;;;;;;12.20;99.90;;;11.27;94.17;98876.06;5048838;28;19929;-84
2023/03/13 06:40:19;;;;;;;;;;;12.20;99.90;;;11.30;93.93;98872.06;5044150;28;19967;-84
2023/03/13 06:42:46;;;;;;;;;;;12.20;99.90;;;11.32;93.96;98878.78;5051021;28;19928;-84
2023/03/13 06:45:13;;;;;;;;;;;12.20;99.90;;;11.35;94.07;98872.09;5047502;28;20015;-84
2023/03/13 06:47:41;;;;;;;;;;;12.30;99.90;;;11.39;94.02;98881.22;5046380;28;20416;-84
2023/03/13 06:50:11;;;;;;;;;;;12.30;99.90;;;11.41;93.46;98884.44;5043055;28;19932;-84
2023/03/13 06:52:38;;;;;;;;;;;12.30;99.90;;;11.44;93.48;98883.13;5050977;28;19929;-81
2023/03/13 06:55:07;;;;;;;;;;;12.30;99.90;;;11.46;92.88;98895.16;5047936;28;19975;-80
2023/03/13 06:57:34;;;;;;;;;;;12.30;99.90;;;11.50;92.89;98895.44;5046420;28;19947;-79
2023/03/13 07:00:01;;;;;;;;;;;12.40;99.90;;;11.51;92.60;98905.06;5047188;28;20485;-79
2023/03/13 07:02:28;;;;;;;;;;;12.40;99.90;;;11.52;92.69;98885.34;5047765;28;19928;-79
2023/03/13 07:04:55;;;;;;;;;;;12.40;99.90;;;11.56;92.26;98897.09;5044207;28;19939;-79
2023/03/13 07:07:23;;;;;;;;;;;12.40;99.90;;;11.58;91.79;98886.97;5048729;28;20412;-81
2023/03/13 07:09:50;;;;;;;;;;;12.50;99.90;;;11.58;91.71;98882.44;5052184;23;20010;-87
2023/03/13 07:12:17;;;;;;;;;;;12.50;99.90;;;11.61;91.77;98881.09;5044507;28;20522;-86
2023/03/13 07:14:44;;;;;;;;;;;12.50;99.90;;;11.63;91.55;98892.34;5038869;28;19931;-85
2023/03/13 07:17:11;;;;;;;;;;;12.50;99.90;;;11.64;91.45;98888.59;5045503;28;19929;-88
2023/03/13 07:19:38;;;;;;;;;;;12.50;99.90;;;11.65;90.83;98892.06;5050103;28;19933;-87
2023/03/13 07:22:05;;;;;;;;;;;12.50;99.90;;;11.67;90.79;98892.66;5051994;28;19960;-92
2023/03/13 07:24:34;;;;;;;;;;;12.60;99.90;;;11.68;90.70;98887.03;5048971;28;19942;-90
2023/03/13 07:27:01;;;;;;;;;;;12.60;99.90;;;11.69;90.56;98885.97;5048018;28;20308;-89
2023/03/13 07:29:28;;;;;;;;;;;12.60;99.90;;;11.73;90.26;98873.72;5041314;28;20012;-88
2023/03/13 07:31:55;;;;;;;;;;;12.60;99.90;;;11.77;89.77;98874.81;5046176;28;19968;-88
2023/03/13 07:34:22;;;;;;;;;;;12.70;99.90;;;11.77;90.15;98861.47;5042988;28;19935;-87
2023/03/13 07:36:49;;;;;;;;;;;12.70;99.90;;;11.79;89.59;98872.66;5048897;28;19936;-87
2023/03/13 07:39:16;;;;;;;;;;;12.70;99.90;;;11.80;88.99;98868.94;5045023;28;20006;-88
2023/03/13 07:41:44;;;;;;;;;;;12.70;99.90;;;11.85;88.64;98870.84;5047993;28;20416;-88
2023/03/13 07:44:16;;;;;;;;;;;12.80;99.90;;;11.87;88.49;98860.75;5046127;28;19940;-87
2023/03/13 07:46:43;;;;;;;;;;;12.80;99.90;;;11.89;88.25;98866.63;5045897;28;19929;-88
2023/03/13 07:49:10;;;;;;;;;;;12.80;99.90;;;11.91;88.21;98861.00;5054938;28;19932;-88
2023/03/13 07:51:37;;;;;;;;;;;12.80;99.80;;;11.92;87.70;98867.97;5056213;28;20011;-87
2023/03/13 07:54:04;;;;;;;;;;;12.80;99.70;;;11.93;86.97;98850.88;5049221;28;19929;-87
2023/03/13 07:56:31;;;;;;;;;;;12.80;99.10;;;11.94;87.05;98855.16;5050702;28;19934;-87
2023/03/13 07:58:59;;;;;;;;;;;12.90;99.50;;;11.96;86.95;98855.72;5048512;28;19929;-88
2023/03/13 08:01:27;;;;;;;;;;;12.80;99.20;;;11.96;86.97;98861.84;5047674;28;19936;-89
2023/03/13 08:03:54;;;;;;;;;;;12.90;99.40;;;11.97;86.31;98857.31;5047932;28;19928;-86
2023/03/13 08:06:23;;;;;;;;;;;12.90;98.70;;;11.97;86.22;98849.31;5048771;28;19924;-86
2023/03/13 08:08:50;;;;;;;;;;;12.90;98.90;;;11.96;85.23;98843.16;5049868;28;19928;-86
2023/03/13 08:11:19;;;;;;;;;;;12.90;98.10;;;12.02;85.14;98850.13;5046539;28;20303;-85
2023/03/13 08:13:46;;;;;;;;;;;12.90;98.00;;;12.00;85.38;98856.78;5047672;28;19925;-87
2023/03/13 08:16:16;;;;;;;;;;;12.90;98.10;;;12.00;85.19;98851.44;5045953;28;19933;-84
2023/03/13 08:18:45;;;;;;;;;;;12.90;97.90;;;12.03;85.13;98853.59;5047027;28;19935;-85
2023/03/13 08:21:13;;;;;;;;;;;12.90;98.00;;;12.03;84.46;98840.25;5045872;28;20370;-90
2023/03/13 08:23:40;;;;;;;;;;;12.90;97.40;;;12.06;83.89;98845.88;5047767;28;19932;-89
2023/03/13 08:26:09;;;;;;;;;;;13.00;97.10;;;12.08;84.17;98843.72;5043692;28;19928;-91
2023/03/13 08:28:37;;;;;;;;;;;13.00;97.50;;;12.10;83.81;98849.63;5046373;28;19952;-92
2023/03/13 08:31:09;;;;;;;;;;;13.20;97.20;;;12.10;84.12;98857.66;5048775;28;20019;-92
2023/03/13 08:33:38;;;;;;;;;;;13.00;97.40;;;12.11;83.81;98853.09;5046040;28;19933;-88
2023/03/13 08:36:11;;;;;;;;;;;13.00;97.20;;;12.14;83.29;98857.91;5039505;28;20377;-89
2023/03/13 08:38:38;;;;;;;;;;;13.10;97.00;;;12.13;83.79;98853.63;5048291;28;19929;-88
2023/03/13 08:41:05;;;;;;;;;;;13.00;97.00;;;12.15;83.58;98859.53;5045418;28;19929;-89
2023/03/13 08:43:32;;;;;;;;;;;13.10;97.00;;;12.15;83.30;98859.53;5048787;28;19936;-87
2023/03/13 08:45:59;;;;;;;;;;;13.20;96.60;;;12.17;83.28;98867.28;5049182;28;19963;-92
2023/03/13 08:48:27;;;;;;;;;;;13.10;96.70;;;12.17;83.19;98862.75;5049756;28;19929;-92
2023/03/13 08:51:03;;;;;;;;;;;13.10;96.60;;;12.19;82.78;98865.94;5047571;28;19967;-92
2023/03/13 08:53:30;;;;;;;;;;;13.10;96.30;;;12.24;82.69;98870.50;5044200;28;20943;-93
2023/03/13 08:55:57;;;;;;;;;;;13.10;96.60;;;12.25;82.64;98880.97;5049779;28;19931;-92
2023/03/13 08:58:25;;;;;;;;;;;13.20;96.30;;;12.27;82.78;98868.13;5049857;28;20019;-92
2023/03/13 09:00:52;;;;;;;;;;;13.20;96.20;;;12.29;82.62;98871.34;5049522;28;19955;-94
2023/03/13 09:03:19;;;;;;;;;;;13.20;96.40;;;12.28;82.66;98863.59;5044413;28;19935;-92
2023/03/13 09:05:46;;;;;;;;;;;13.20;96.30;;;12.32;82.83;98867.34;5052612;28;19928;-94
2023/03/13 09:08:15;;;;;;;;;;;13.20;96.30;;;12.31;82.66;98861.19;5049010;28;19928;-91
2023/03/13 09:10:42;;;;;;;;;;;13.20;96.10;;;12.34;82.93;98862.53;5045188;28;19936;-90
2023/03/13 09:13:09;;;;;;;;;;;13.40;96.40;;;12.36;83.19;98853.19;5047017;28;20633;-90
2023/03/13 09:15:36;;;;;;;;;;;13.30;96.40;;;12.42;83.02;98850.53;5041999;28;19933;-89
2023/03/13 09:18:05;;;;;;;;;;;13.30;96.40;;;12.49;82.67;98851.06;5046174;28;19928;-89
2023/03/13 09:20:32;;;;;;;;;;;13.40;96.20;;;12.55;83.18;98842.81;5046627;28;19929;-85
2023/03/13 09:22:59;;;;;;;;;;;13.40;96.50;;;12.60;82.71;98831.34;5048695;28;19937;-89
2023/03/13 09:25:27;;;;;;;;;;;13.50;96.20;;;12.61;82.24;98847.09;5047413;28;19929;-89
2023/03/13 09:27:54;;;;;;;;;;;13.50;96.00;;;12.62;82.53;98840.69;5042890;28;20019;-89
2023/03/13 09:30:21;;;;;;;;;;;13.50;96.20;;;12.67;83.43;98828.41;5045163;28;19955;-89
2023/03/13 09:32:48;;;;;;;;;;;13.60;96.70;;;12.69;82.77;98826.25;5049453;28;19929;-88
2023/03/13 09:35:15;;;;;;;;;;;13.60;96.20;;;12.74;82.75;98827.09;5049753;28;20363;-90
2023/03/13 09:37:42;;;;;;;;;;;13.60;96.20;;;12.77;82.82;98839.09;5046553;28;20412;-82
2023/03/13 09:40:14;;;;;;;;;;;13.70;96.30;;;12.77;83.86;98823.84;5048902;28;19932;-90
2023/03/13 09:42:46;;;;;;;;;;;13.70;97.20;;;12.77;84.96;98826.53;5049600;28;20033;-94
2023/03/13 09:45:17;;;;;;;;;;;13.70;97.80;;;12.77;85.07;98831.09;5051627;28;20393;-90
2023/03/13 09:47:47;;;;;;;;;;;13.70;97.70;;;12.75;85.12;98828.69;5049663;28;19979;-88
2023/03/13 09:50:18;;;;;;;;;;;13.70;97.70;;;12.74;86.32;98834.31;5047446;28;19956;-92
2023/03/13 09:52:48;;;;;;;;;;;13.70;98.50;;;12.72;87.15;98825.72;5050882;28;19928;-92
2023/03/13 09:55:20;;;;;;;;;;;13.70;99.00;;;12.70;88.18;98807.28;5048072;28;20694;-93
2023/03/13 09:57:54;;;;;;;;;;;13.60;99.40;;;12.70;88.88;98801.94;5047798;28;19932;-91
2023/03/13 10:00:24;;;;;;;;;;;13.60;99.90;;;12.68;88.89;98809.41;5050506;28;19931;-92
2023/03/13 10:02:56;;;;;;;;;;;13.60;99.60;;;12.68;88.12;98809.41;5042452;28;19964;-90
2023/03/13 10:05:23;;;;;;;;;;;13.60;99.30;;;12.69;88.46;98797.66;5049744;28;19936;-93
2023/03/13 10:07:55;;;;;;;;;;;13.60;99.60;;;12.69;88.24;98797.66;5048463;28;19931;-93
2023/03/13 10:10:43;;;;;;;;;;;13.60;99.30;;;12.71;87.41;98811.56;5049543;28;19925;-93
2023/03/13 10:13:18;;;;;;;;;;;13.60;98.90;;;12.70;86.74;98806.47;5043613;28;19933;-91
2023/03/13 10:15:49;;;;;;;;;;;13.60;98.70;;;12.72;87.17;98786.41;5049823;28;19990;-92
2023/03/13 10:18:19;;;;;;;;;;;13.60;99.10;;;12.78;87.67;98792.56;5049485;28;20309;-93
2023/03/13 10:20:48;;;;;;;;;;;13.70;99.20;;;12.86;88.03;98778.66;5045810;28;19929;-91
2023/03/13 10:23:20;;;;;;;;;;;13.80;99.20;;;12.91;87.11;98775.19;5049335;28;19932;-92
2023/03/13 10:25:47;;;;;;;;;;;13.80;98.90;;;12.98;86.52;98771.19;5044201;28;20347;-91
2023/03/13 10:28:18;;;;;;;;;;;13.90;98.50;;;13.02;86.23;98769.53;5044371;28;19929;-87
2023/03/13 10:30:48;;;;;;;;;;;13.90;98.30;;;13.06;86.05;98753.75;5040315;28;19936;-87
2023/03/13 10:33:20;;;;;;;;;;;13.90;98.40;;;13.10;84.54;98742.25;5044718;28;20401;-91
2023/03/13 10:35:58;;;;;;;;;;;14.00;97.00;;;13.18;83.78;98746.25;5044037;28;19964;-91
2023/03/13 10:38:26;;;;;;;;;;;14.10;96.70;;;13.21;83.21;98748.38;5045740;28;19964;-92
2023/03/13 10:40:57;;;;;;;;;;;14.10;96.30;;;13.25;82.57;98748.69;5047731;28;19936;-91
2023/03/13 10:43:27;;;;;;;;;;;14.20;96.00;;;13.33;82.81;98748.13;5050557;28;19933;-91
2023/03/13 10:45:55;;;;;;;;;;;14.20;95.80;;;13.48;82.21;98741.94;5047892;28;20629;-91
2023/03/13 10:48:23;;;;;;;;;;;14.30;96.00;;;13.56;82.39;98739.47;5047938;28;19924;-91
2023/03/13 10:50:52;;;;;;;;;;;14.40;95.90;;;13.59;79.61;98728.22;5046383;28;20066;-90
2023/03/13 10:53:25;;;;;;;;;;;14.50;94.00;;;13.62;79.78;98734.94;5047757;28;19928;-91
2023/03/13 10:55:54;;;;;;;;;;;14.50;94.30;;;13.63;79.97;98740.00;5045968;28;19950;-91
2023/03/13 10:58:26;;;;;;;;;;;14.60;94.40;;;13.62;80.85;98737.59;5043764;28;19936;-93
2023/03/13 11:01:09;;;;;;;;;;;14.60;94.90;;;13.64;80.11;98730.09;5047119;28;19929;-93
2023/03/13 11:03:36;;;;;;;;;;;14.60;94.40;;;13.63;79.27;98728.47;5053875;28;20007;-93
2023/03/13 11:06:04;;;;;;;;;;;14.60;93.80;;;13.65;79.14;98715.59;5051121;28;20388;-91
2023/03/13 11:08:35;;;;;;;;;;;14.60;93.90;;;13.65;79.11;98715.59;5056575;28;19929;-92
2023/03/13 11:11:03;;;;;;;;;;;14.60;93.80;;;13.69;78.29;98716.66;5055080;28;19929;-92
2023/03/13 11:13:35;;;;;;;;;;;14.60;93.30;;;13.73;76.97;98723.09;5052815;28;19933;-93
2023/03/13 11:16:10;;;;;;;;;;;14.70;92.30;;;13.77;77.24;98708.06;5052848;28;20015;-92
2023/03/13 11:18:42;;;;;;;;;;;14.70;92.60;;;13.82;77.12;98718.75;5068187;28;20464;-92
2023/03/13 11:21:12;;;;;;;;;;;14.80;92.60;;;13.83;77.70;98720.34;5053296;28;19936;-82
2023/03/13 11:23:43;;;;;;;;;;;14.80;92.90;;;13.82;77.39;98708.03;5051109;28;19978;-87
2023/03/13 11:26:16;;;;;;;;;;;14.80;92.60;;;13.86;76.16;98706.41;5055626;28;20385;-85
2023/03/13 11:28:50;;;;;;;;;;;14.80;91.80;;;13.89;76.29;98705.03;5055412;28;20031;-84
2023/03/13 11:31:23;;;;;;;;;;;14.80;91.60;;;13.90;74.86;98691.34;5046795;28;19929;-85
2023/03/13 11:33:57;;;;;;;;;;;14.80;90.50;;;13.95;74.67;98697.78;5049110;28;20307;-85
2023/03/13 11:36:32;;;;;;;;;;;14.90;90.40;;;13.98;74.73;98679.28;5050475;28;19933;-85